TimeCEST,TemperatureF,Dew PointF,Humidity,Sea Level PressureIn,VisibilityMPH,Wind Direction,Wind SpeedMPH,Gust SpeedMPH,PrecipitationIn,Events,Conditions,WindDirDegrees,DateUTC
12:00 AM,62.6,59.0,88,30.06,6.2,SSE,2.3,-,N/A,,Partly Cloudy,150,2012-10-22 22:00:00
1:00 AM,66.2,60.8,83,30.04,6.2,West,4.6,-,N/A,,Partly Cloudy,260,2012-10-22 23:00:00
1:30 AM,66.2,59.0,78,30.04,6.2,WNW,5.8,-,N/A,,Partly Cloudy,300,2012-10-22 23:30:00
2:00 AM,64,57,70,30.06,9,SW,4.6,,,,Scattered Clouds,230,2012-10-23 00:00:00
2:00 AM,66.2,59.0,78,30.04,6.2,WSW,4.6,-,N/A,,Partly Cloudy,240,2012-10-23 00:00:00
3:00 AM,66.2,59.0,78,30.04,6.2,North,4.6,-,N/A,,Partly Cloudy,10,2012-10-23 01:00:00
3:30 AM,64.4,59.0,83,30.04,6.2,North,3.5,-,N/A,,Partly Cloudy,10,2012-10-23 01:30:00
4:00 AM,60.8,57.2,88,30.04,6.2,ENE,3.5,-,N/A,,Partly Cloudy,70,2012-10-23 02:00:00
4:30 AM,59.0,57.2,94,30.04,6.2,Variable,1.2,-,N/A,,Partly Cloudy,0,2012-10-23 02:30:00
5:00 AM,59.0,57.2,94,30.04,6.2,NE,3.5,-,N/A,,Partly Cloudy,50,2012-10-23 03:00:00
5:30 AM,59.0,57.2,94,30.04,6.2,NNE,1.2,-,N/A,,Partly Cloudy,30,2012-10-23 03:30:00
6:00 AM,60.8,57.2,88,30.04,6.2,South,3.5,-,N/A,,Partly Cloudy,180,2012-10-23 04:00:00
6:30 AM,60.8,57.2,88,30.04,6.2,Calm,Calm,-,N/A,,Partly Cloudy,0,2012-10-23 04:30:00
7:30 AM,59.0,57.2,94,30.04,6.2,Variable,1.2,-,N/A,,Partly Cloudy,0,2012-10-23 05:30:00
8:00 AM,58,55,85,30.07,11,East,1.2,,,,Scattered Clouds,90,2012-10-23 06:00:00
8:00 AM,59.0,57.2,94,30.06,6.2,SSE,1.2,-,N/A,,Partly Cloudy,160,2012-10-23 06:00:00
9:00 AM,59.0,57.2,94,30.06,6.2,ENE,4.6,-,N/A,,Partly Cloudy,70,2012-10-23 07:00:00
10:00 AM,64.4,59.0,83,30.06,6.2,Variable,1.2,-,N/A,,Partly Cloudy,0,2012-10-23 08:00:00
10:30 AM,68.0,59.0,73,30.06,6.2,Calm,Calm,-,N/A,,Partly Cloudy,0,2012-10-23 08:30:00
11:00 AM,69.8,59.0,68,30.09,6.2,Calm,Calm,-,N/A,,Partly Cloudy,0,2012-10-23 09:00:00
12:30 PM,73.4,59.0,61,30.09,6.2,NNW,1.2,-,N/A,,Partly Cloudy,340,2012-10-23 10:30:00
1:00 PM,73.4,55.4,53,30.06,6.2,NW,2.3,-,N/A,,Partly Cloudy,320,2012-10-23 11:00:00
2:00 PM,74,53,37,30.07,16,NNW,6.9,,,,Scattered Clouds,330,2012-10-23 12:00:00
2:30 PM,71.6,57.2,60,30.04,6.2,ENE,9.2,-,N/A,,Partly Cloudy,70,2012-10-23 12:30:00
3:00 PM,75.2,57.2,53,30.04,6.2,East,3.5,-,N/A,,Partly Cloudy,90,2012-10-23 13:00:00
4:30 PM,75.2,59.0,57,30.04,6.2,Variable,1.2,-,N/A,,Partly Cloudy,0,2012-10-23 14:30:00
5:30 PM,73.4,57.2,57,30.04,6.2,ENE,8.1,-,N/A,,Partly Cloudy,60,2012-10-23 15:30:00
6:00 PM,71.6,55.4,57,30.04,6.2,Calm,Calm,-,N/A,,Partly Cloudy,0,2012-10-23 16:00:00
6:30 PM,71.6,57.2,60,30.04,6.2,Variable,1.2,-,N/A,,Partly Cloudy,0,2012-10-23 16:30:00
7:00 PM,69.8,57.2,64,30.04,6.2,Calm,Calm,-,N/A,,Partly Cloudy,0,2012-10-23 17:00:00
7:30 PM,68.0,59.0,73,30.06,6.2,Calm,Calm,-,N/A,,Partly Cloudy,0,2012-10-23 17:30:00
8:00 PM,66,54,57,30.08,12,NNE,1.2,,,,Scattered Clouds,20,2012-10-23 18:00:00
8:00 PM,66.2,57.2,73,30.06,6.2,Variable,2.3,-,N/A,,Partly Cloudy,0,2012-10-23 18:00:00
8:30 PM,66.2,59.0,78,30.06,-9999.0,SE,2.3,-,N/A,,Clear,140,2012-10-23 18:30:00
9:30 PM,62.6,59.0,88,30.06,-9999.0,NE,1.2,-,N/A,,Clear,50,2012-10-23 19:30:00
10:00 PM,60.8,59.0,94,30.06,-9999.0,NE,1.2,-,N/A,,Clear,50,2012-10-23 20:00:00
10:30 PM,60.8,59.0,94,30.06,-9999.0,Variable,1.2,-,N/A,,Clear,0,2012-10-23 20:30:00
11:00 PM,60.8,59.0,94,30.06,-9999.0,Calm,Calm,-,N/A,,Clear,0,2012-10-23 21:00:00
11:30 PM,60.8,59.0,94,30.06,-9999.0,Calm,Calm,-,N/A,,Clear,0,2012-10-23 21:30:00